sensor_id;sensor_type;location;lat;lon;timestamp;P1;durP1;ratioP1;P2;durP2;ratioP2
6467;SDS011;3267;48.794;9.928;2024-03-06T05:16:59;9.17;;;5.40;;
6467;SDS011;3267;48.794;9.928;2024-03-06T05:19:25;5.63;;;4.93;;
6467;SDS011;3267;48.794;9.928;2024-03-06T05:21:57;5.90;;;5.30;;
6467;SDS011;3267;48.794;9.928;2024-03-06T05:24:24;6.20;;;5.60;;
6467;SDS011;3267;48.794;9.928;2024-03-06T05:26:49;5.90;;;5.13;;
6467;SDS011;3267;48.794;9.928;2024-03-06T05:29:16;7.50;;;5.07;;
6467;SDS011;3267;48.794;9.928;2024-03-06T05:31:42;7.00;;;5.50;;
6467;SDS011;3267;48.794;9.928;2024-03-06T05:34:07;6.07;;;5.37;;
6467;SDS011;3267;48.794;9.928;2024-03-06T05:36:33;6.10;;;4.73;;
6467;SDS011;3267;48.794;9.928;2024-03-06T05:38:59;7.57;;;5.33;;
6467;SDS011;3267;48.794;9.928;2024-03-06T05:41:25;6.10;;;5.10;;
6467;SDS011;3267;48.794;9.928;2024-03-06T05:43:51;6.33;;;5.23;;
6467;SDS011;3267;48.794;9.928;2024-03-06T05:46:16;9.80;;;5.73;;
6467;SDS011;3267;48.794;9.928;2024-03-06T05:48:42;5.90;;;5.00;;
6467;SDS011;3267;48.794;9.928;2024-03-06T05:51:08;5.87;;;5.27;;
6467;SDS011;3267;48.794;9.928;2024-03-06T05:53:37;5.97;;;5.33;;
6467;SDS011;3267;48.794;9.928;2024-03-06T05:56:06;6.40;;;4.70;;
6467;SDS011;3267;48.794;9.928;2024-03-06T05:58:32;6.43;;;5.27;;
6467;SDS011;3267;48.794;9.928;2024-03-06T06:00:59;6.63;;;5.20;;
6467;SDS011;3267;48.794;9.928;2024-03-06T06:03:26;5.43;;;4.93;;
6467;SDS011;3267;48.794;9.928;2024-03-06T06:05:53;6.03;;;5.30;;
6467;SDS011;3267;48.794;9.928;2024-03-06T06:08:21;6.57;;;5.20;;
6467;SDS011;3267;48.794;9.928;2024-03-06T06:10:47;6.03;;;5.43;;
6467;SDS011;3267;48.794;9.928;2024-03-06T06:13:16;6.83;;;5.23;;
6467;SDS011;3267;48.794;9.928;2024-03-06T06:15:43;6.07;;;4.97;;
6467;SDS011;3267;48.794;9.928;2024-03-06T06:18:09;6.50;;;5.63;;
6467;SDS011;3267;48.794;9.928;2024-03-06T06:20:34;6.40;;;5.80;;
6467;SDS011;3267;48.794;9.928;2024-03-06T06:23:00;6.10;;;5.53;;
6467;SDS011;3267;48.794;9.928;2024-03-06T06:25:26;5.83;;;5.23;;
6467;SDS011;3267;48.794;9.928;2024-03-06T06:27:52;5.90;;;5.30;;
6467;SDS011;3267;48.794;9.928;2024-03-06T06:30:18;6.10;;;5.30;;
6467;SDS011;3267;48.794;9.928;2024-03-06T06:32:44;5.87;;;5.17;;
6467;SDS011;3267;48.794;9.928;2024-03-06T06:35:10;5.80;;;5.07;;
6467;SDS011;3267;48.794;9.928;2024-03-06T06:37:37;6.10;;;4.77;;
6467;SDS011;3267;48.794;9.928;2024-03-06T06:40:03;6.00;;;5.13;;
6467;SDS011;3267;48.794;9.928;2024-03-06T06:42:32;6.70;;;5.00;;
6467;SDS011;3267;48.794;9.928;2024-03-06T06:44:59;6.00;;;5.37;;
6467;SDS011;3267;48.794;9.928;2024-03-06T06:47:25;6.27;;;5.33;;
6467;SDS011;3267;48.794;9.928;2024-03-06T06:49:52;6.50;;;5.70;;
6467;SDS011;3267;48.794;9.928;2024-03-06T06:52:17;6.03;;;5.27;;
6467;SDS011;3267;48.794;9.928;2024-03-06T06:54:44;7.30;;;5.33;;
6467;SDS011;3267;48.794;9.928;2024-03-06T06:57:10;5.93;;;5.33;;
6467;SDS011;3267;48.794;9.928;2024-03-06T06:59:35;7.03;;;5.77;;
6467;SDS011;3267;48.794;9.928;2024-03-06T07:02:02;7.00;;;5.70;;
6467;SDS011;3267;48.794;9.928;2024-03-06T07:04:28;6.10;;;4.97;;
6467;SDS011;3267;48.794;9.928;2024-03-06T07:06:54;6.50;;;5.77;;
6467;SDS011;3267;48.794;9.928;2024-03-06T07:09:19;6.70;;;5.73;;
6467;SDS011;3267;48.794;9.928;2024-03-06T07:11:45;6.53;;;5.80;;
6467;SDS011;3267;48.794;9.928;2024-03-06T07:14:14;7.07;;;5.97;;
6467;SDS011;3267;48.794;9.928;2024-03-06T07:16:43;7.07;;;6.30;;
6467;SDS011;3267;48.794;9.928;2024-03-06T07:19:09;7.50;;;6.10;;
6467;SDS011;3267;48.794;9.928;2024-03-06T07:21:35;6.67;;;5.97;;
6467;SDS011;3267;48.794;9.928;2024-03-06T07:24:01;7.10;;;6.23;;
6467;SDS011;3267;48.794;9.928;2024-03-06T07:26:26;7.17;;;6.47;;
6467;SDS011;3267;48.794;9.928;2024-03-06T07:28:55;8.20;;;6.27;;
6467;SDS011;3267;48.794;9.928;2024-03-06T07:31:21;8.43;;;6.30;;
6467;SDS011;3267;48.794;9.928;2024-03-06T07:33:47;7.93;;;6.90;;
6467;SDS011;3267;48.794;9.928;2024-03-06T07:36:12;10.37;;;6.80;;
6467;SDS011;3267;48.794;9.928;2024-03-06T07:38:38;8.83;;;6.97;;
6467;SDS011;3267;48.794;9.928;2024-03-06T07:41:04;7.73;;;6.37;;
6467;SDS011;3267;48.794;9.928;2024-03-06T07:43:29;7.77;;;6.53;;
6467;SDS011;3267;48.794;9.928;2024-03-06T07:45:55;7.83;;;6.73;;
6467;SDS011;3267;48.794;9.928;2024-03-06T07:48:21;9.10;;;7.43;;
6467;SDS011;3267;48.794;9.928;2024-03-06T07:50:46;7.57;;;6.77;;
6467;SDS011;3267;48.794;9.928;2024-03-06T07:53:12;8.23;;;6.70;;
6467;SDS011;3267;48.794;9.928;2024-03-06T07:55:38;7.90;;;6.90;;
6467;SDS011;3267;48.794;9.928;2024-03-06T07:58:04;7.50;;;6.30;;
6467;SDS011;3267;48.794;9.928;2024-03-06T08:00:30;8.20;;;6.97;;
6467;SDS011;3267;48.794;9.928;2024-03-06T08:02:56;9.47;;;6.67;;
6467;SDS011;3267;48.794;9.928;2024-03-06T08:05:22;7.87;;;7.00;;
6467;SDS011;3267;48.794;9.928;2024-03-06T08:07:49;7.67;;;5.47;;
6467;SDS011;3267;48.794;9.928;2024-03-06T08:10:15;8.93;;;7.20;;
6467;SDS011;3267;48.794;9.928;2024-03-06T08:12:42;12.10;;;7.87;;
6467;SDS011;3267;48.794;9.928;2024-03-06T08:15:12;10.23;;;7.30;;
6467;SDS011;3267;48.794;9.928;2024-03-06T08:17:42;19.83;;;11.00;;
6467;SDS011;3267;48.794;9.928;2024-03-06T08:20:08;21.20;;;11.20;;
6467;SDS011;3267;48.794;9.928;2024-03-06T08:22:38;11.00;;;7.97;;
6467;SDS011;3267;48.794;9.928;2024-03-06T08:25:06;11.50;;;8.47;;
6467;SDS011;3267;48.794;9.928;2024-03-06T08:27:34;10.17;;;7.87;;
6467;SDS011;3267;48.794;9.928;2024-03-06T08:30:01;9.07;;;7.47;;
6467;SDS011;3267;48.794;9.928;2024-03-06T08:32:29;10.03;;;7.70;;
6467;SDS011;3267;48.794;9.928;2024-03-06T08:34:58;8.77;;;7.40;;
6467;SDS011;3267;48.794;9.928;2024-03-06T08:37:24;9.40;;;7.33;;
6467;SDS011;3267;48.794;9.928;2024-03-06T08:39:50;11.13;;;8.03;;
6467;SDS011;3267;48.794;9.928;2024-03-06T08:42:16;7.83;;;6.67;;
6467;SDS011;3267;48.794;9.928;2024-03-06T08:44:43;8.13;;;6.53;;
6467;SDS011;3267;48.794;9.928;2024-03-06T08:47:10;8.20;;;6.93;;
6467;SDS011;3267;48.794;9.928;2024-03-06T08:49:37;9.60;;;7.57;;
6467;SDS011;3267;48.794;9.928;2024-03-06T08:52:02;9.87;;;7.23;;
6467;SDS011;3267;48.794;9.928;2024-03-06T08:54:28;8.13;;;7.07;;
6467;SDS011;3267;48.794;9.928;2024-03-06T08:56:56;9.50;;;7.63;;
6467;SDS011;3267;48.794;9.928;2024-03-06T08:59:24;8.70;;;6.97;;
6467;SDS011;3267;48.794;9.928;2024-03-06T09:01:53;8.97;;;7.43;;
6467;SDS011;3267;48.794;9.928;2024-03-06T09:04:40;8.37;;;7.17;;
6467;SDS011;3267;48.794;9.928;2024-03-06T09:07:16;8.40;;;7.00;;
6467;SDS011;3267;48.794;9.928;2024-03-06T09:09:41;8.50;;;7.17;;
6467;SDS011;3267;48.794;9.928;2024-03-06T09:12:08;8.17;;;7.20;;
6467;SDS011;3267;48.794;9.928;2024-03-06T09:14:42;9.07;;;7.60;;
6467;SDS011;3267;48.794;9.928;2024-03-06T09:17:08;8.10;;;7.27;;
6467;SDS011;3267;48.794;9.928;2024-03-06T09:19:40;7.07;;;6.37;;
6467;SDS011;3267;48.794;9.928;2024-03-06T09:22:06;8.43;;;7.20;;
6467;SDS011;3267;48.794;9.928;2024-03-06T09:24:37;7.63;;;6.60;;
6467;SDS011;3267;48.794;9.928;2024-03-06T09:27:04;7.37;;;6.67;;
6467;SDS011;3267;48.794;9.928;2024-03-06T09:29:30;8.50;;;7.10;;
6467;SDS011;3267;48.794;9.928;2024-03-06T09:31:55;8.00;;;6.33;;
6467;SDS011;3267;48.794;9.928;2024-03-06T09:34:21;6.73;;;6.03;;
6467;SDS011;3267;48.794;9.928;2024-03-06T09:36:49;8.40;;;6.80;;
6467;SDS011;3267;48.794;9.928;2024-03-06T09:39:15;9.93;;;7.73;;
6467;SDS011;3267;48.794;9.928;2024-03-06T09:41:45;9.77;;;8.13;;
6467;SDS011;3267;48.794;9.928;2024-03-06T09:44:13;7.93;;;6.90;;
6467;SDS011;3267;48.794;9.928;2024-03-06T09:46:43;7.67;;;6.60;;
6467;SDS011;3267;48.794;9.928;2024-03-06T09:49:14;7.90;;;6.20;;
6467;SDS011;3267;48.794;9.928;2024-03-06T09:51:47;7.77;;;6.97;;
6467;SDS011;3267;48.794;9.928;2024-03-06T09:54:19;7.83;;;6.07;;
6467;SDS011;3267;48.794;9.928;2024-03-06T09:56:46;7.77;;;6.40;;
6467;SDS011;3267;48.794;9.928;2024-03-06T09:59:13;8.27;;;6.37;;
6467;SDS011;3267;48.794;9.928;2024-03-06T10:02:00;8.60;;;6.80;;
6467;SDS011;3267;48.794;9.928;2024-03-06T10:04:29;7.17;;;6.47;;
6467;SDS011;3267;48.794;9.928;2024-03-06T10:06:58;6.23;;;5.63;;
6467;SDS011;3267;48.794;9.928;2024-03-06T10:09:25;7.03;;;6.07;;
6467;SDS011;3267;48.794;9.928;2024-03-06T10:11:51;6.60;;;5.90;;
6467;SDS011;3267;48.794;9.928;2024-03-06T10:14:24;6.33;;;5.63;;
6467;SDS011;3267;48.794;9.928;2024-03-06T10:16:53;6.53;;;5.83;;
6467;SDS011;3267;48.794;9.928;2024-03-06T10:19:24;6.07;;;5.47;;
6467;SDS011;3267;48.794;9.928;2024-03-06T10:21:52;8.33;;;5.70;;
6467;SDS011;3267;48.794;9.928;2024-03-06T10:24:28;9.33;;;6.63;;
6467;SDS011;3267;48.794;9.928;2024-03-06T10:26:55;6.60;;;5.87;;
6467;SDS011;3267;48.794;9.928;2024-03-06T10:29:24;8.30;;;6.17;;
6467;SDS011;3267;48.794;9.928;2024-03-06T10:31:51;7.27;;;5.90;;
6467;SDS011;3267;48.794;9.928;2024-03-06T10:34:19;7.20;;;6.13;;
6467;SDS011;3267;48.794;9.928;2024-03-06T10:36:56;6.10;;;5.50;;
6467;SDS011;3267;48.794;9.928;2024-03-06T10:39:24;7.73;;;6.00;;
6467;SDS011;3267;48.794;9.928;2024-03-06T10:41:57;8.33;;;6.67;;
6467;SDS011;3267;48.794;9.928;2024-03-06T10:44:24;7.20;;;6.20;;
6467;SDS011;3267;48.794;9.928;2024-03-06T10:49:24;9.13;;;5.77;;
6467;SDS011;3267;48.794;9.928;2024-03-06T10:51:54;7.27;;;6.20;;
6467;SDS011;3267;48.794;9.928;2024-03-06T10:54:22;6.93;;;6.20;;
6467;SDS011;3267;48.794;9.928;2024-03-06T10:56:52;7.57;;;5.70;;
6467;SDS011;3267;48.794;9.928;2024-03-06T10:59:19;7.43;;;5.73;;
6467;SDS011;3267;48.794;9.928;2024-03-06T11:01:46;6.73;;;6.03;;
6467;SDS011;3267;48.794;9.928;2024-03-06T11:04:13;6.83;;;5.93;;
6467;SDS011;3267;48.794;9.928;2024-03-06T11:06:40;7.53;;;6.27;;
6467;SDS011;3267;48.794;9.928;2024-03-06T11:09:06;8.27;;;6.27;;
6467;SDS011;3267;48.794;9.928;2024-03-06T11:11:47;8.00;;;6.30;;
6467;SDS011;3267;48.794;9.928;2024-03-06T11:14:14;7.37;;;6.57;;
6467;SDS011;3267;48.794;9.928;2024-03-06T11:28:15;8.70;;;7.03;;
6467;SDS011;3267;48.794;9.928;2024-03-06T11:30:45;8.73;;;6.70;;
6467;SDS011;3267;48.794;9.928;2024-03-06T11:33:12;8.23;;;6.67;;
6467;SDS011;3267;48.794;9.928;2024-03-06T11:35:41;8.37;;;6.80;;
6467;SDS011;3267;48.794;9.928;2024-03-06T11:38:16;8.00;;;6.53;;
6467;SDS011;3267;48.794;9.928;2024-03-06T11:40:43;7.27;;;6.37;;
6467;SDS011;3267;48.794;9.928;2024-03-06T11:43:22;8.80;;;6.93;;
6467;SDS011;3267;48.794;9.928;2024-03-06T11:45:52;8.85;;;6.75;;
6467;SDS011;3267;48.794;9.928;2024-03-06T11:48:18;9.98;;;6.65;;
6467;SDS011;3267;48.794;9.928;2024-03-06T11:50:46;9.13;;;6.50;;
6467;SDS011;3267;48.794;9.928;2024-03-06T11:53:13;7.97;;;6.80;;
6467;SDS011;3267;48.794;9.928;2024-03-06T11:55:41;9.40;;;6.97;;
6467;SDS011;3267;48.794;9.928;2024-03-06T11:58:07;7.85;;;6.55;;
6467;SDS011;3267;48.794;9.928;2024-03-06T12:00:35;7.13;;;5.55;;
6467;SDS011;3267;48.794;9.928;2024-03-06T12:03:01;10.00;;;6.57;;
6467;SDS011;3267;48.794;9.928;2024-03-06T12:05:29;8.23;;;6.50;;
6467;SDS011;3267;48.794;9.928;2024-03-06T12:07:55;7.93;;;6.38;;
6467;SDS011;3267;48.794;9.928;2024-03-06T12:10:21;10.13;;;6.60;;
6467;SDS011;3267;48.794;9.928;2024-03-06T12:12:47;7.63;;;6.53;;
6467;SDS011;3267;48.794;9.928;2024-03-06T12:15:14;7.40;;;6.35;;
6467;SDS011;3267;48.794;9.928;2024-03-06T12:17:49;8.60;;;6.75;;
6467;SDS011;3267;48.794;9.928;2024-03-06T12:20:16;8.30;;;5.90;;
6467;SDS011;3267;48.794;9.928;2024-03-06T12:22:54;7.37;;;6.23;;
6467;SDS011;3267;48.794;9.928;2024-03-06T12:25:23;8.35;;;6.45;;
6467;SDS011;3267;48.794;9.928;2024-03-06T12:27:50;10.13;;;6.63;;
6467;SDS011;3267;48.794;9.928;2024-03-06T12:30:17;11.20;;;6.77;;
6467;SDS011;3267;48.794;9.928;2024-03-06T12:32:44;11.00;;;7.27;;
6467;SDS011;3267;48.794;9.928;2024-03-06T12:35:10;9.93;;;7.17;;
6467;SDS011;3267;48.794;9.928;2024-03-06T12:37:36;9.90;;;7.07;;
6467;SDS011;3267;48.794;9.928;2024-03-06T12:40:05;8.60;;;6.77;;
6467;SDS011;3267;48.794;9.928;2024-03-06T12:42:31;10.93;;;7.00;;
6467;SDS011;3267;48.794;9.928;2024-03-06T12:44:57;9.90;;;6.97;;
6467;SDS011;3267;48.794;9.928;2024-03-06T12:47:23;9.45;;;7.28;;
6467;SDS011;3267;48.794;9.928;2024-03-06T12:49:49;10.98;;;7.63;;
6467;SDS011;3267;48.794;9.928;2024-03-06T12:52:16;11.00;;;7.43;;
6467;SDS011;3267;48.794;9.928;2024-03-06T12:54:41;9.52;;;7.50;;
6467;SDS011;3267;48.794;9.928;2024-03-06T12:57:08;11.27;;;7.43;;
6467;SDS011;3267;48.794;9.928;2024-03-06T12:59:33;11.00;;;7.00;;
6467;SDS011;3267;48.794;9.928;2024-03-06T13:01:59;8.55;;;6.80;;
6467;SDS011;3267;48.794;9.928;2024-03-06T13:04:25;10.43;;;7.10;;
6467;SDS011;3267;48.794;9.928;2024-03-06T13:06:50;10.30;;;7.15;;
6467;SDS011;3267;48.794;9.928;2024-03-06T13:09:16;11.48;;;7.95;;
6467;SDS011;3267;48.794;9.928;2024-03-06T13:11:42;10.10;;;6.95;;
6467;SDS011;3267;48.794;9.928;2024-03-06T13:14:08;11.03;;;7.60;;
6467;SDS011;3267;48.794;9.928;2024-03-06T13:16:37;10.60;;;7.67;;
6467;SDS011;3267;48.794;9.928;2024-03-06T13:19:02;11.20;;;7.03;;
6467;SDS011;3267;48.794;9.928;2024-03-06T13:21:29;11.48;;;7.65;;
6467;SDS011;3267;48.794;9.928;2024-03-06T13:23:55;12.17;;;6.80;;
6467;SDS011;3267;48.794;9.928;2024-03-06T13:26:20;13.25;;;8.00;;
6467;SDS011;3267;48.794;9.928;2024-03-06T13:28:47;10.55;;;7.63;;
6467;SDS011;3267;48.794;9.928;2024-03-06T13:31:12;11.88;;;7.88;;
6467;SDS011;3267;48.794;9.928;2024-03-06T13:33:38;11.07;;;7.40;;
6467;SDS011;3267;48.794;9.928;2024-03-06T13:36:04;11.03;;;7.60;;
6467;SDS011;3267;48.794;9.928;2024-03-06T13:38:29;12.23;;;8.70;;
6467;SDS011;3267;48.794;9.928;2024-03-06T13:40:55;12.02;;;8.18;;
6467;SDS011;3267;48.794;9.928;2024-03-06T13:43:21;12.10;;;8.25;;
6467;SDS011;3267;48.794;9.928;2024-03-06T13:45:49;13.35;;;8.88;;
6467;SDS011;3267;48.794;9.928;2024-03-06T13:48:15;14.30;;;8.75;;
6467;SDS011;3267;48.794;9.928;2024-03-06T13:50:44;13.95;;;8.70;;
6467;SDS011;3267;48.794;9.928;2024-03-06T13:53:11;15.23;;;8.60;;
6467;SDS011;3267;48.794;9.928;2024-03-06T13:55:37;12.07;;;7.85;;
6467;SDS011;3267;48.794;9.928;2024-03-06T13:58:02;12.00;;;9.15;;
6467;SDS011;3267;48.794;9.928;2024-03-06T14:00:29;15.27;;;9.18;;
6467;SDS011;3267;48.794;9.928;2024-03-06T14:02:55;14.10;;;9.82;;
6467;SDS011;3267;48.794;9.928;2024-03-06T14:05:20;17.52;;;9.80;;
6467;SDS011;3267;48.794;9.928;2024-03-06T14:07:52;17.67;;;9.38;;
6467;SDS011;3267;48.794;9.928;2024-03-06T14:10:19;17.63;;;9.80;;
6467;SDS011;3267;48.794;9.928;2024-03-06T14:12:46;14.52;;;10.05;;
6467;SDS011;3267;48.794;9.928;2024-03-06T14:15:12;14.20;;;9.32;;
6467;SDS011;3267;48.794;9.928;2024-03-06T14:17:41;14.43;;;9.60;;
6467;SDS011;3267;48.794;9.928;2024-03-06T14:20:07;16.08;;;10.10;;
6467;SDS011;3267;48.794;9.928;2024-03-06T14:22:33;17.05;;;9.77;;
6467;SDS011;3267;48.794;9.928;2024-03-06T14:25:00;19.48;;;10.60;;
6467;SDS011;3267;48.794;9.928;2024-03-06T14:27:26;16.48;;;10.00;;
6467;SDS011;3267;48.794;9.928;2024-03-06T14:29:52;16.17;;;10.38;;
6467;SDS011;3267;48.794;9.928;2024-03-06T14:32:19;15.30;;;9.40;;
6467;SDS011;3267;48.794;9.928;2024-03-06T14:34:45;16.98;;;10.90;;
6467;SDS011;3267;48.794;9.928;2024-03-06T14:37:11;16.23;;;10.32;;
6467;SDS011;3267;48.794;9.928;2024-03-06T14:39:37;13.70;;;9.95;;
6467;SDS011;3267;48.794;9.928;2024-03-06T14:42:03;16.37;;;11.43;;
6467;SDS011;3267;48.794;9.928;2024-03-06T14:44:29;16.90;;;10.50;;
6467;SDS011;3267;48.794;9.928;2024-03-06T14:46:56;17.45;;;10.77;;
6467;SDS011;3267;48.794;9.928;2024-03-06T14:49:23;18.90;;;10.80;;
6467;SDS011;3267;48.794;9.928;2024-03-06T14:51:49;18.73;;;11.60;;
6467;SDS011;3267;48.794;9.928;2024-03-06T14:54:14;16.93;;;10.83;;
6467;SDS011;3267;48.794;9.928;2024-03-06T14:56:40;19.48;;;11.50;;
6467;SDS011;3267;48.794;9.928;2024-03-06T14:59:06;18.88;;;12.13;;
6467;SDS011;3267;48.794;9.928;2024-03-06T15:01:32;17.38;;;10.90;;
6467;SDS011;3267;48.794;9.928;2024-03-06T15:04:00;18.17;;;11.57;;
6467;SDS011;3267;48.794;9.928;2024-03-06T15:06:26;15.15;;;10.93;;
6467;SDS011;3267;48.794;9.928;2024-03-06T15:08:52;21.77;;;13.05;;
6467;SDS011;3267;48.794;9.928;2024-03-06T15:11:18;19.10;;;12.48;;
6467;SDS011;3267;48.794;9.928;2024-03-06T15:13:46;17.25;;;11.20;;
6467;SDS011;3267;48.794;9.928;2024-03-06T15:16:12;18.33;;;12.93;;
6467;SDS011;3267;48.794;9.928;2024-03-06T15:18:38;17.30;;;11.82;;
6467;SDS011;3267;48.794;9.928;2024-03-06T15:21:04;21.33;;;12.23;;
6467;SDS011;3267;48.794;9.928;2024-03-06T15:23:30;20.00;;;11.98;;
6467;SDS011;3267;48.794;9.928;2024-03-06T15:25:59;16.50;;;11.65;;
6467;SDS011;3267;48.794;9.928;2024-03-06T15:28:24;17.17;;;12.02;;
6467;SDS011;3267;48.794;9.928;2024-03-06T15:30:50;20.77;;;12.15;;
6467;SDS011;3267;48.794;9.928;2024-03-06T15:33:16;19.33;;;12.00;;
6467;SDS011;3267;48.794;9.928;2024-03-06T15:35:43;18.30;;;11.73;;
6467;SDS011;3267;48.794;9.928;2024-03-06T15:38:09;18.70;;;11.93;;
6467;SDS011;3267;48.794;9.928;2024-03-06T15:40:35;19.95;;;11.98;;
6467;SDS011;3267;48.794;9.928;2024-03-06T15:43:02;18.33;;;12.10;;
6467;SDS011;3267;48.794;9.928;2024-03-06T15:45:28;19.20;;;12.40;;
6467;SDS011;3267;48.794;9.928;2024-03-06T15:47:55;20.98;;;12.40;;
6467;SDS011;3267;48.794;9.928;2024-03-06T15:50:21;19.60;;;12.67;;
6467;SDS011;3267;48.794;9.928;2024-03-06T15:52:46;19.23;;;12.93;;
6467;SDS011;3267;48.794;9.928;2024-03-06T15:55:15;18.40;;;12.02;;
6467;SDS011;3267;48.794;9.928;2024-03-06T15:57:41;21.20;;;11.85;;
6467;SDS011;3267;48.794;9.928;2024-03-06T16:00:08;19.17;;;11.90;;
6467;SDS011;3267;48.794;9.928;2024-03-06T16:02:38;16.80;;;11.57;;
6467;SDS011;3267;48.794;9.928;2024-03-06T16:05:05;18.73;;;12.80;;
6467;SDS011;3267;48.794;9.928;2024-03-06T16:07:33;20.05;;;13.30;;
6467;SDS011;3267;48.794;9.928;2024-03-06T16:09:59;20.15;;;12.23;;
6467;SDS011;3267;48.794;9.928;2024-03-06T16:12:25;19.63;;;13.15;;
6467;SDS011;3267;48.794;9.928;2024-03-06T16:14:50;19.77;;;12.73;;
6467;SDS011;3267;48.794;9.928;2024-03-06T16:17:17;21.83;;;13.10;;
6467;SDS011;3267;48.794;9.928;2024-03-06T16:19:43;20.27;;;13.15;;
6467;SDS011;3267;48.794;9.928;2024-03-06T16:22:08;17.25;;;11.93;;
6467;SDS011;3267;48.794;9.928;2024-03-06T16:24:37;18.05;;;11.98;;
6467;SDS011;3267;48.794;9.928;2024-03-06T16:27:05;20.92;;;12.38;;
6467;SDS011;3267;48.794;9.928;2024-03-06T16:29:34;23.75;;;12.68;;
6467;SDS011;3267;48.794;9.928;2024-03-06T16:32:01;19.40;;;12.55;;
6467;SDS011;3267;48.794;9.928;2024-03-06T16:34:27;19.48;;;12.07;;
6467;SDS011;3267;48.794;9.928;2024-03-06T16:36:54;20.02;;;12.95;;
6467;SDS011;3267;48.794;9.928;2024-03-06T16:39:20;20.92;;;13.48;;
6467;SDS011;3267;48.794;9.928;2024-03-06T16:41:48;24.60;;;13.20;;
6467;SDS011;3267;48.794;9.928;2024-03-06T16:44:14;22.13;;;13.73;;
6467;SDS011;3267;48.794;9.928;2024-03-06T16:46:39;19.98;;;12.68;;
6467;SDS011;3267;48.794;9.928;2024-03-06T16:49:06;21.70;;;13.15;;
6467;SDS011;3267;48.794;9.928;2024-03-06T16:51:32;19.33;;;12.57;;
6467;SDS011;3267;48.794;9.928;2024-03-06T16:54:01;19.05;;;12.20;;
6467;SDS011;3267;48.794;9.928;2024-03-06T16:56:28;21.02;;;12.90;;
6467;SDS011;3267;48.794;9.928;2024-03-06T16:58:54;19.95;;;13.70;;
6467;SDS011;3267;48.794;9.928;2024-03-06T17:01:20;18.80;;;13.05;;
6467;SDS011;3267;48.794;9.928;2024-03-06T17:03:47;23.80;;;13.40;;
6467;SDS011;3267;48.794;9.928;2024-03-06T17:06:13;21.05;;;13.75;;
6467;SDS011;3267;48.794;9.928;2024-03-06T17:08:39;20.35;;;13.32;;
6467;SDS011;3267;48.794;9.928;2024-03-06T17:11:10;22.88;;;13.55;;
6467;SDS011;3267;48.794;9.928;2024-03-06T17:13:36;20.40;;;13.80;;
6467;SDS011;3267;48.794;9.928;2024-03-06T17:16:07;22.23;;;14.90;;
6467;SDS011;3267;48.794;9.928;2024-03-06T17:18:35;20.67;;;14.20;;
6467;SDS011;3267;48.794;9.928;2024-03-06T17:21:02;20.63;;;13.25;;
6467;SDS011;3267;48.794;9.928;2024-03-06T17:23:32;19.98;;;12.35;;
6467;SDS011;3267;48.794;9.928;2024-03-06T17:25:59;21.35;;;13.55;;
6467;SDS011;3267;48.794;9.928;2024-03-06T17:28:25;21.55;;;13.88;;
6467;SDS011;3267;48.794;9.928;2024-03-06T17:30:51;21.10;;;13.43;;
6467;SDS011;3267;48.794;9.928;2024-03-06T17:33:18;21.10;;;13.23;;
6467;SDS011;3267;48.794;9.928;2024-03-06T17:35:45;21.80;;;12.73;;
6467;SDS011;3267;48.794;9.928;2024-03-06T17:38:13;19.88;;;13.48;;
6467;SDS011;3267;48.794;9.928;2024-03-06T17:40:39;20.27;;;12.77;;
6467;SDS011;3267;48.794;9.928;2024-03-06T17:43:08;21.00;;;13.75;;
6467;SDS011;3267;48.794;9.928;2024-03-06T17:45:35;20.45;;;13.20;;
6467;SDS011;3267;48.794;9.928;2024-03-06T17:48:01;20.63;;;13.48;;
6467;SDS011;3267;48.794;9.928;2024-03-06T17:50:27;21.35;;;13.30;;
6467;SDS011;3267;48.794;9.928;2024-03-06T17:52:53;20.85;;;13.57;;
6467;SDS011;3267;48.794;9.928;2024-03-06T17:55:19;21.73;;;13.05;;
6467;SDS011;3267;48.794;9.928;2024-03-06T17:57:45;22.95;;;14.38;;
6467;SDS011;3267;48.794;9.928;2024-03-06T18:00:16;32.80;;;18.13;;
6467;SDS011;3267;48.794;9.928;2024-03-06T18:02:43;24.58;;;14.73;;
6467;SDS011;3267;48.794;9.928;2024-03-06T18:05:09;21.20;;;12.98;;
6467;SDS011;3267;48.794;9.928;2024-03-06T18:07:36;38.08;;;19.48;;
6467;SDS011;3267;48.794;9.928;2024-03-06T18:10:02;31.85;;;15.85;;
6467;SDS011;3267;48.794;9.928;2024-03-06T18:12:29;25.77;;;14.93;;
6467;SDS011;3267;48.794;9.928;2024-03-06T18:14:58;19.27;;;13.43;;
6467;SDS011;3267;48.794;9.928;2024-03-06T18:17:24;21.58;;;13.23;;
6467;SDS011;3267;48.794;9.928;2024-03-06T18:19:51;21.60;;;12.98;;
6467;SDS011;3267;48.794;9.928;2024-03-06T18:22:16;18.58;;;12.40;;
6467;SDS011;3267;48.794;9.928;2024-03-06T18:24:42;20.33;;;13.50;;
6467;SDS011;3267;48.794;9.928;2024-03-06T18:27:09;18.33;;;12.35;;
6467;SDS011;3267;48.794;9.928;2024-03-06T18:29:38;22.67;;;13.23;;
6467;SDS011;3267;48.794;9.928;2024-03-06T18:32:05;19.70;;;13.23;;
6467;SDS011;3267;48.794;9.928;2024-03-06T18:34:33;23.80;;;14.65;;
6467;SDS011;3267;48.794;9.928;2024-03-06T18:36:59;19.33;;;13.27;;
6467;SDS011;3267;48.794;9.928;2024-03-06T18:39:25;22.05;;;12.68;;
6467;SDS011;3267;48.794;9.928;2024-03-06T18:41:53;20.83;;;13.37;;
6467;SDS011;3267;48.794;9.928;2024-03-06T18:44:20;23.42;;;13.27;;
6467;SDS011;3267;48.794;9.928;2024-03-06T18:46:46;21.15;;;12.15;;
6467;SDS011;3267;48.794;9.928;2024-03-06T18:49:12;18.50;;;12.48;;
6467;SDS011;3267;48.794;9.928;2024-03-06T18:51:45;18.98;;;12.73;;
6467;SDS011;3267;48.794;9.928;2024-03-06T18:54:15;21.92;;;13.98;;
6467;SDS011;3267;48.794;9.928;2024-03-06T18:56:41;20.15;;;12.93;;
6467;SDS011;3267;48.794;9.928;2024-03-06T18:59:08;22.48;;;13.45;;
6467;SDS011;3267;48.794;9.928;2024-03-06T19:01:38;21.98;;;14.55;;
6467;SDS011;3267;48.794;9.928;2024-03-06T19:04:04;22.93;;;14.77;;
6467;SDS011;3267;48.794;9.928;2024-03-06T19:06:30;24.13;;;15.57;;
6467;SDS011;3267;48.794;9.928;2024-03-06T19:08:57;19.77;;;12.77;;
6467;SDS011;3267;48.794;9.928;2024-03-06T19:11:23;20.27;;;13.23;;
6467;SDS011;3267;48.794;9.928;2024-03-06T19:13:48;20.95;;;13.10;;
6467;SDS011;3267;48.794;9.928;2024-03-06T19:16:15;20.20;;;12.98;;
6467;SDS011;3267;48.794;9.928;2024-03-06T19:18:41;23.77;;;13.88;;
6467;SDS011;3267;48.794;9.928;2024-03-06T19:21:07;22.15;;;13.32;;
6467;SDS011;3267;48.794;9.928;2024-03-06T19:23:33;20.23;;;12.07;;
6467;SDS011;3267;48.794;9.928;2024-03-06T19:25:59;24.25;;;14.38;;
6467;SDS011;3267;48.794;9.928;2024-03-06T19:28:24;20.63;;;13.75;;
6467;SDS011;3267;48.794;9.928;2024-03-06T19:30:50;21.25;;;13.02;;
6467;SDS011;3267;48.794;9.928;2024-03-06T19:33:16;21.63;;;13.87;;
6467;SDS011;3267;48.794;9.928;2024-03-06T19:35:41;20.53;;;13.47;;
6467;SDS011;3267;48.794;9.928;2024-03-06T19:38:07;20.03;;;13.40;;
6467;SDS011;3267;48.794;9.928;2024-03-06T19:40:38;19.25;;;12.50;;
6467;SDS011;3267;48.794;9.928;2024-03-06T19:43:06;17.42;;;11.82;;
6467;SDS011;3267;48.794;9.928;2024-03-06T19:45:32;19.00;;;11.43;;
6467;SDS011;3267;48.794;9.928;2024-03-06T19:47:58;19.15;;;12.30;;
6467;SDS011;3267;48.794;9.928;2024-03-06T19:50:24;21.33;;;13.52;;
6467;SDS011;3267;48.794;9.928;2024-03-06T19:52:49;20.13;;;13.63;;
6467;SDS011;3267;48.794;9.928;2024-03-06T19:55:16;19.50;;;13.10;;
6467;SDS011;3267;48.794;9.928;2024-03-06T19:57:42;22.90;;;13.93;;
6467;SDS011;3267;48.794;9.928;2024-03-06T20:00:08;24.73;;;14.77;;
6467;SDS011;3267;48.794;9.928;2024-03-06T20:02:39;19.50;;;13.05;;
6467;SDS011;3267;48.794;9.928;2024-03-06T20:05:05;18.88;;;13.77;;
6467;SDS011;3267;48.794;9.928;2024-03-06T20:07:32;21.95;;;13.90;;
6467;SDS011;3267;48.794;9.928;2024-03-06T20:09:58;22.30;;;14.38;;
6467;SDS011;3267;48.794;9.928;2024-03-06T20:12:23;20.67;;;13.63;;
6467;SDS011;3267;48.794;9.928;2024-03-06T20:14:49;20.30;;;13.02;;
6467;SDS011;3267;48.794;9.928;2024-03-06T20:17:15;16.73;;;11.20;;
6467;SDS011;3267;48.794;9.928;2024-03-06T20:19:41;21.63;;;12.57;;
6467;SDS011;3267;48.794;9.928;2024-03-06T20:22:07;21.95;;;13.57;;
6467;SDS011;3267;48.794;9.928;2024-03-06T20:24:33;19.08;;;12.68;;
6467;SDS011;3267;48.794;9.928;2024-03-06T20:27:00;22.20;;;13.20;;
6467;SDS011;3267;48.794;9.928;2024-03-06T20:29:28;19.63;;;13.18;;
6467;SDS011;3267;48.794;9.928;2024-03-06T20:31:55;19.58;;;12.85;;